Time,TemperatureF,DewpointF,PressureIn,WindDirection,WindDirectionDegrees,WindSpeedMPH,WindSpeedGustMPH,Humidity,HourlyPrecipIn,Conditions,Clouds,dailyrainin,SolarRadiationWatts/m^2,SoftwareType,DateUTC
2013-02-06 00:06:00,6.1,2.0,30.03,North,4,0.0,0.0,83,0.00,,,0.00,0,Wunderground v.1.15,2013-02-06 06:06:00,
2013-02-06 00:11:00,5.9,1.8,30.03,North,4,0.0,0.0,83,0.00,,,0.00,0,Wunderground v.1.15,2013-02-06 06:11:00,
2013-02-06 00:21:00,5.5,1.5,30.03,North,4,2.0,2.0,83,0.00,,,0.00,0,Wunderground v.1.15,2013-02-06 06:21:00,
2013-02-06 00:31:00,5.4,1.6,30.03,North,4,1.0,1.0,84,0.00,,,0.00,0,Wunderground v.1.15,2013-02-06 06:31:00,
2013-02-06 00:41:00,4.7,0.7,30.04,North,4,1.0,1.0,83,0.00,,,0.00,0,Wunderground v.1.15,2013-02-06 06:41:00,
2013-02-06 00:51:00,4.3,0.0,30.04,North,4,0.0,0.0,82,0.00,,,0.00,0,Wunderground v.1.15,2013-02-06 06:51:00,
2013-02-06 01:01:00,4.1,0.1,30.03,North,4,0.0,0.0,83,0.00,,,0.00,0,Wunderground v.1.15,2013-02-06 07:01:00,
2013-02-06 01:06:00,4.1,0.1,30.03,North,4,0.0,0.0,83,0.00,,,0.00,0,Wunderground v.1.15,2013-02-06 07:06:00,
2013-02-06 01:16:00,4.5,0.7,30.02,North,4,0.0,0.0,84,0.00,,,0.00,0,Wunderground v.1.15,2013-02-06 07:16:00,
2013-02-06 01:26:00,4.5,1.0,30.03,North,4,0.0,0.0,85,0.00,,,0.00,0,Wunderground v.1.15,2013-02-06 07:26:00,
2013-02-06 01:36:00,4.2,0.2,30.02,North,4,0.0,0.0,83,0.00,,,0.00,0,Wunderground v.1.15,2013-02-06 07:36:00,
2013-02-06 01:46:00,2.9,-1.6,30.02,North,4,0.0,0.0,81,0.00,,,0.00,0,Wunderground v.1.15,2013-02-06 07:46:00,
2013-02-06 01:56:00,2.4,-2.4,30.04,North,4,0.0,0.0,80,0.00,,,0.00,0,Wunderground v.1.15,2013-02-06 07:56:00,
2013-02-06 02:06:00,1.8,-3.2,30.05,North,0,1.0,2.0,79,0.00,,,0.00,0,Wunderground v.1.15,2013-02-06 08:06:00,
2013-02-06 02:16:00,1.8,-2.9,30.06,North,0,0.0,0.0,80,0.00,,,0.00,0,Wunderground v.1.15,2013-02-06 08:16:00,
2013-02-06 02:21:00,1.9,-2.6,30.06,North,0,0.0,0.0,81,0.00,,,0.00,0,Wunderground v.1.15,2013-02-06 08:21:00,
2013-02-06 02:31:00,1.6,-3.1,30.07,North,0,0.0,0.0,80,0.00,,,0.00,0,Wunderground v.1.15,2013-02-06 08:31:00,
2013-02-06 02:41:00,1.5,-3.2,30.06,North,0,0.0,0.0,80,0.00,,,0.00,0,Wunderground v.1.15,2013-02-06 08:41:00,
2013-02-06 02:46:00,1.6,-3.1,30.07,North,0,0.0,0.0,80,0.00,,,0.00,0,Wunderground v.1.15,2013-02-06 08:46:00,
2013-02-06 02:56:00,1.2,-3.8,30.06,North,0,0.0,0.0,79,0.00,,,0.00,0,Wunderground v.1.15,2013-02-06 08:56:00,
2013-02-06 03:06:00,0.9,-4.1,30.06,North,0,0.0,3.0,79,0.00,,,0.00,0,Wunderground v.1.15,2013-02-06 09:06:00,
2013-02-06 03:16:00,1.1,-3.4,30.06,North,0,0.0,0.0,81,0.00,,,0.00,0,Wunderground v.1.15,2013-02-06 09:16:00,
2013-02-06 03:21:00,1.1,-3.4,30.06,North,0,0.0,0.0,81,0.00,,,0.00,0,Wunderground v.1.15,2013-02-06 09:21:00,
2013-02-06 03:31:00,1.1,-3.4,30.05,North,0,0.0,0.0,81,0.00,,,0.00,0,Wunderground v.1.15,2013-02-06 09:31:00,
2013-02-06 03:41:00,1.1,-3.4,30.06,North,0,1.0,1.0,81,0.00,,,0.00,0,Wunderground v.1.15,2013-02-06 09:41:00,
2013-02-06 03:46:00,0.9,-3.6,30.05,North,0,0.0,1.0,81,0.00,,,0.00,0,Wunderground v.1.15,2013-02-06 09:46:00,
2013-02-06 03:56:00,0.8,-3.7,30.05,North,0,0.0,0.0,81,0.00,,,0.00,0,Wunderground v.1.15,2013-02-06 09:56:00,
2013-02-06 04:06:00,0.4,-4.3,30.05,North,0,0.0,0.0,80,0.00,,,0.00,0,Wunderground v.1.15,2013-02-06 10:06:00,
2013-02-06 04:16:00,0.1,-4.9,30.05,North,0,0.0,0.0,79,0.00,,,0.00,0,Wunderground v.1.15,2013-02-06 10:16:00,
2013-02-06 04:26:00,-0.7,-6.2,30.07,North,0,0.0,0.0,77,0.00,,,0.00,0,Wunderground v.1.15,2013-02-06 10:26:00,
2013-02-06 04:36:00,-1.4,-6.9,30.07,North,0,0.0,0.0,77,0.00,,,0.00,0,Wunderground v.1.15,2013-02-06 10:36:00,
2013-02-06 04:41:00,-1.4,-6.3,30.07,North,0,0.0,0.0,79,0.00,,,0.00,0,Wunderground v.1.15,2013-02-06 10:41:00,
2013-02-06 04:51:00,-1.9,-7.3,30.06,North,0,0.0,0.0,77,0.00,,,0.00,0,Wunderground v.1.15,2013-02-06 10:51:00,
2013-02-06 05:01:00,-1.8,-7.3,30.06,North,0,0.0,0.0,77,0.00,,,0.00,0,Wunderground v.1.15,2013-02-06 11:01:00,
2013-02-06 05:11:00,-1.5,-6.7,30.06,North,0,0.0,0.0,78,0.00,,,0.00,0,Wunderground v.1.15,2013-02-06 11:11:00,
2013-02-06 05:16:00,-1.4,-6.3,30.07,North,0,0.0,0.0,79,0.00,,,0.00,0,Wunderground v.1.15,2013-02-06 11:16:00,
2013-02-06 05:26:00,-1.3,-6.2,30.07,North,0,0.0,0.0,79,0.00,,,0.00,0,Wunderground v.1.15,2013-02-06 11:26:00,
2013-02-06 05:36:00,-1.5,-6.4,30.07,North,0,0.0,0.0,79,0.00,,,0.00,0,Wunderground v.1.15,2013-02-06 11:36:00,
2013-02-06 05:41:00,-1.7,-6.9,30.07,North,0,0.0,0.0,78,0.00,,,0.00,0,Wunderground v.1.15,2013-02-06 11:41:00,
2013-02-06 05:51:00,-1.6,-6.8,30.07,North,0,0.0,0.0,78,0.00,,,0.00,0,Wunderground v.1.15,2013-02-06 11:51:00,
2013-02-06 06:01:00,-1.8,-6.7,30.06,North,0,1.0,1.0,79,0.00,,,0.00,0,Wunderground v.1.15,2013-02-06 12:01:00,
2013-02-06 06:11:00,-1.8,-6.7,30.07,North,0,0.0,0.0,79,0.00,,,0.00,0,Wunderground v.1.15,2013-02-06 12:11:00,
2013-02-06 06:16:00,-1.9,-7.1,30.07,North,0,0.0,0.0,78,0.00,,,0.00,0,Wunderground v.1.15,2013-02-06 12:16:00,
2013-02-06 06:26:00,-2.0,-7.2,30.07,North,0,0.0,0.0,78,0.00,,,0.00,0,Wunderground v.1.15,2013-02-06 12:26:00,
2013-02-06 06:36:00,-2.0,-7.2,30.07,North,0,0.0,0.0,78,0.00,,,0.00,0,Wunderground v.1.15,2013-02-06 12:36:00,
2013-02-06 06:46:00,-2.2,-7.4,30.08,North,0,0.0,0.0,78,0.00,,,0.00,0,Wunderground v.1.15,2013-02-06 12:46:00,
2013-02-06 06:56:00,-2.5,-7.9,30.08,North,0,0.0,0.0,77,0.00,,,0.00,0,Wunderground v.1.15,2013-02-06 12:56:00,
2013-02-06 07:06:00,-2.9,-8.6,30.09,North,0,0.0,0.0,76,0.00,,,0.00,0,Wunderground v.1.15,2013-02-06 13:06:00,
2013-02-06 07:16:00,-3.1,-8.8,30.09,North,0,0.0,0.0,76,0.00,,,0.00,0,Wunderground v.1.15,2013-02-06 13:16:00,
2013-02-06 07:26:00,-3.4,-9.1,30.09,North,0,0.0,0.0,76,0.00,,,0.00,0,Wunderground v.1.15,2013-02-06 13:26:00,
2013-02-06 07:36:00,-3.3,-9.0,30.09,North,0,0.0,0.0,76,0.00,,,0.00,0,Wunderground v.1.15,2013-02-06 13:36:00,
2013-02-06 07:46:00,-2.7,-8.1,30.10,North,0,0.0,0.0,77,0.00,,,0.00,0,Wunderground v.1.15,2013-02-06 13:46:00,
2013-02-06 07:56:00,-2.1,-7.5,30.10,North,0,0.0,0.0,77,0.00,,,0.00,0,Wunderground v.1.15,2013-02-06 13:56:00,
2013-02-06 08:06:00,-1.4,-6.6,30.10,North,0,0.0,0.0,78,0.00,,,0.00,0,Wunderground v.1.15,2013-02-06 14:06:00,
2013-02-06 08:11:00,-0.8,-6.0,30.10,North,0,0.0,0.0,78,0.00,,,0.00,0,Wunderground v.1.15,2013-02-06 14:11:00,
2013-02-06 08:21:00,-0.3,-5.5,30.11,North,0,0.0,0.0,78,0.00,,,0.00,0,Wunderground v.1.15,2013-02-06 14:21:00,
2013-02-06 08:31:00,0.6,-4.1,30.11,North,0,0.0,0.0,80,0.00,,,0.00,0,Wunderground v.1.15,2013-02-06 14:31:00,
2013-02-06 08:41:00,1.7,-3.0,30.10,North,0,2.0,2.0,80,0.00,,,0.00,0,Wunderground v.1.15,2013-02-06 14:41:00,
2013-02-06 08:51:00,3.8,-0.2,30.10,North,0,0.0,0.0,83,0.00,,,0.00,0,Wunderground v.1.15,2013-02-06 14:51:00,
2013-02-06 08:56:00,5.0,1.5,30.11,North,0,0.0,0.0,85,0.00,,,0.00,0,Wunderground v.1.15,2013-02-06 14:56:00,
2013-02-06 09:06:00,6.6,3.0,30.11,North,0,2.0,2.0,85,0.00,,,0.00,0,Wunderground v.1.15,2013-02-06 15:06:00,
2013-02-06 09:11:00,7.6,4.0,30.11,North,0,0.0,0.0,85,0.00,,,0.00,0,Wunderground v.1.15,2013-02-06 15:11:00,
2013-02-06 09:21:00,8.2,4.4,30.10,North,0,0.0,0.0,84,0.00,,,0.00,0,Wunderground v.1.15,2013-02-06 15:21:00,
2013-02-06 09:31:00,8.8,5.2,30.10,North,0,0.0,0.0,85,0.00,,,0.00,0,Wunderground v.1.15,2013-02-06 15:31:00,
2013-02-06 09:41:00,10.8,7.2,30.09,ESE,123,4.0,4.0,85,0.00,,,0.00,0,Wunderground v.1.15,2013-02-06 15:41:00,
2013-02-06 09:51:00,13.7,9.2,30.10,SE,139,4.0,4.0,82,0.00,,,0.00,0,Wunderground v.1.15,2013-02-06 15:51:00,
2013-02-06 10:01:00,16.5,12.0,30.10,SE,140,1.0,1.0,82,0.00,,,0.00,0,Wunderground v.1.15,2013-02-06 16:01:00,
2013-02-06 10:06:00,17.7,12.9,30.09,SE,140,5.0,5.0,81,0.00,,,0.00,0,Wunderground v.1.15,2013-02-06 16:06:00,
2013-02-06 10:16:00,19.2,13.5,30.08,SE,144,5.0,5.0,78,0.00,,,0.00,0,Wunderground v.1.15,2013-02-06 16:16:00,
2013-02-06 10:26:00,20.5,14.4,30.09,SSE,161,5.0,7.0,77,0.00,,,0.00,0,Wunderground v.1.15,2013-02-06 16:26:00,
2013-02-06 10:31:00,21.1,14.7,30.09,SE,145,5.0,5.0,76,0.00,,,0.00,0,Wunderground v.1.15,2013-02-06 16:31:00,
2013-02-06 10:41:00,22.1,15.7,30.09,SE,144,2.0,2.0,76,0.00,,,0.00,0,Wunderground v.1.15,2013-02-06 16:41:00,
2013-02-06 10:51:00,23.3,16.5,30.10,SSE,148,1.0,1.0,75,0.00,,,0.00,0,Wunderground v.1.15,2013-02-06 16:51:00,
2013-02-06 11:01:00,24.3,16.9,30.09,SSE,147,2.0,2.0,73,0.00,,,0.00,0,Wunderground v.1.15,2013-02-06 17:01:00,
2013-02-06 11:06:00,24.8,17.1,30.10,SE,145,2.0,2.0,72,0.00,,,0.00,0,Wunderground v.1.15,2013-02-06 17:06:00,
2013-02-06 11:16:00,25.9,17.5,30.10,South,173,5.0,5.0,70,0.00,,,0.00,0,Wunderground v.1.15,2013-02-06 17:16:00,
2013-02-06 11:26:00,26.5,18.0,30.09,SSE,159,6.0,6.0,70,0.00,,,0.00,0,Wunderground v.1.15,2013-02-06 17:26:00,
2013-02-06 11:36:00,26.6,18.1,30.09,SSE,152,5.0,5.0,70,0.00,,,0.00,0,Wunderground v.1.15,2013-02-06 17:36:00,
2013-02-06 11:46:00,26.6,17.8,30.08,SE,144,5.0,5.0,69,0.00,,,0.00,0,Wunderground v.1.15,2013-02-06 17:46:00,
2013-02-06 11:56:00,27.1,18.3,30.08,SE,143,4.0,4.0,69,0.00,,,0.00,0,Wunderground v.1.15,2013-02-06 17:56:00,
2013-02-06 12:06:00,27.5,19.0,30.08,SE,144,5.0,5.0,70,0.00,,,0.00,0,Wunderground v.1.15,2013-02-06 18:06:00,
2013-02-06 12:16:00,28.3,19.1,30.08,SE,140,5.0,5.0,68,0.00,,,0.00,0,Wunderground v.1.15,2013-02-06 18:16:00,
2013-02-06 12:21:00,28.4,19.2,30.08,SE,140,6.0,6.0,68,0.00,,,0.00,0,Wunderground v.1.15,2013-02-06 18:21:00,
2013-02-06 12:31:00,28.6,19.4,30.07,SSE,150,5.0,5.0,68,0.00,,,0.00,0,Wunderground v.1.15,2013-02-06 18:31:00,
2013-02-06 12:41:00,28.8,19.6,30.07,SSE,155,3.0,3.0,68,0.00,,,0.00,0,Wunderground v.1.15,2013-02-06 18:41:00,
2013-02-06 12:46:00,28.8,18.9,30.07,SSE,147,4.0,4.0,66,0.00,,,0.00,0,Wunderground v.1.15,2013-02-06 18:46:00,
2013-02-06 12:56:00,28.4,19.2,30.07,SE,146,5.0,6.0,68,0.00,,,0.00,0,Wunderground v.1.15,2013-02-06 18:56:00,
2013-02-06 13:06:00,28.4,19.2,30.07,SSE,148,4.0,6.0,68,0.00,,,0.00,0,Wunderground v.1.15,2013-02-06 19:06:00,
2013-02-06 13:16:00,28.5,19.6,30.07,SE,141,5.0,6.0,69,0.00,,,0.00,0,Wunderground v.1.15,2013-02-06 19:16:00,
2013-02-06 13:26:00,28.2,20.0,30.06,SSE,153,6.0,6.0,71,0.00,,,0.00,0,Wunderground v.1.15,2013-02-06 19:26:00,
2013-02-06 13:36:00,27.5,20.0,30.06,South,172,6.0,7.0,73,0.00,,,0.00,0,Wunderground v.1.15,2013-02-06 19:36:00,
2013-02-06 13:41:00,27.2,20.3,30.06,SSE,149,7.0,7.0,75,0.00,,,0.00,0,Wunderground v.1.15,2013-02-06 19:41:00,
2013-02-06 13:51:00,26.9,20.7,30.05,SE,141,4.0,4.0,77,0.00,,,0.00,0,Wunderground v.1.15,2013-02-06 19:51:00,
2013-02-06 14:01:00,26.8,20.6,30.04,SE,137,4.0,4.0,77,0.00,,,0.00,0,Wunderground v.1.15,2013-02-06 20:01:00,
2013-02-06 14:06:00,27.0,21.1,30.04,SE,143,6.0,6.0,78,0.00,,,0.00,0,Wunderground v.1.15,2013-02-06 20:06:00,
2013-02-06 14:16:00,27.5,21.5,30.04,SSE,154,6.0,7.0,78,0.00,,,0.00,0,Wunderground v.1.15,2013-02-06 20:16:00,
2013-02-06 14:26:00,27.6,21.6,30.04,SE,131,5.0,5.0,78,0.00,,,0.00,0,Wunderground v.1.15,2013-02-06 20:26:00,
2013-02-06 14:36:00,27.8,21.5,30.04,SE,133,4.0,7.0,77,0.00,,,0.00,0,Wunderground v.1.15,2013-02-06 20:36:00,
2013-02-06 14:41:00,28.0,21.7,30.03,SE,138,7.0,7.0,77,0.00,,,0.00,0,Wunderground v.1.15,2013-02-06 20:41:00,
2013-02-06 14:51:00,28.7,22.1,30.03,ESE,120,9.0,9.0,76,0.00,,,0.00,0,Wunderground v.1.15,2013-02-06 20:51:00,
2013-02-06 15:01:00,29.2,22.3,30.02,SE,127,7.0,7.0,75,0.00,,,0.00,0,Wunderground v.1.15,2013-02-06 21:01:00,
2013-02-06 15:06:00,29.0,21.7,30.02,SE,145,5.0,7.0,74,0.00,,,0.00,0,Wunderground v.1.15,2013-02-06 21:06:00,
2013-02-06 15:16:00,28.6,21.4,30.02,East,96,4.0,8.0,74,0.00,,,0.00,0,Wunderground v.1.15,2013-02-06 21:16:00,
2013-02-06 15:26:00,28.2,21.3,30.02,South,170,4.0,9.0,75,0.00,,,0.00,0,Wunderground v.1.15,2013-02-06 21:26:00,
2013-02-06 15:36:00,27.8,21.2,30.02,SSE,161,6.0,6.0,76,0.00,,,0.00,0,Wunderground v.1.15,2013-02-06 21:36:00,
2013-02-06 15:41:00,27.5,20.9,30.01,SE,139,4.0,4.0,76,0.00,,,0.00,0,Wunderground v.1.15,2013-02-06 21:41:00,
2013-02-06 15:51:00,27.6,21.3,30.02,SE,139,3.0,3.0,77,0.00,,,0.00,0,Wunderground v.1.15,2013-02-06 21:51:00,
2013-02-06 16:01:00,27.4,21.1,30.01,SE,132,12.0,12.0,77,0.00,,,0.00,0,Wunderground v.1.15,2013-02-06 22:01:00,
2013-02-06 16:11:00,27.3,20.7,30.01,SE,132,5.0,5.0,76,0.00,,,0.00,0,Wunderground v.1.15,2013-02-06 22:11:00,
2013-02-06 16:16:00,27.2,20.6,29.99,SE,137,5.0,5.0,76,0.00,,,0.00,0,Wunderground v.1.15,2013-02-06 22:16:00,
2013-02-06 16:26:00,27.2,20.9,29.99,SE,141,5.0,5.0,77,0.00,,,0.00,0,Wunderground v.1.15,2013-02-06 22:26:00,
2013-02-06 16:36:00,27.2,20.6,29.97,ESE,119,8.0,8.0,76,0.00,,,0.00,0,Wunderground v.1.15,2013-02-06 22:36:00,
2013-02-06 16:46:00,27.1,20.5,29.98,SE,139,11.0,11.0,76,0.00,,,0.00,0,Wunderground v.1.15,2013-02-06 22:46:00,
2013-02-06 16:56:00,27.1,20.8,29.98,SE,145,1.0,4.0,77,0.00,,,0.00,0,Wunderground v.1.15,2013-02-06 22:56:00,
2013-02-06 17:06:00,27.0,20.4,29.98,ESE,111,6.0,6.0,76,0.00,,,0.00,0,Wunderground v.1.15,2013-02-06 23:06:00,
2013-02-06 17:11:00,27.0,20.4,29.99,ESE,103,4.0,4.0,76,0.00,,,0.00,0,Wunderground v.1.15,2013-02-06 23:11:00,
2013-02-06 17:21:00,27.0,20.4,29.98,SE,131,5.0,5.0,76,0.00,,,0.00,0,Wunderground v.1.15,2013-02-06 23:21:00,
2013-02-06 17:31:00,26.9,20.3,29.99,ESE,107,3.0,3.0,76,0.00,,,0.00,0,Wunderground v.1.15,2013-02-06 23:31:00,
2013-02-06 19:56:00,26.7,22.5,29.99,NNE,28,0.0,0.0,84,0.00,,,0.00,0,Wunderground v.1.15,2013-02-07 01:56:00,
2013-02-06 20:06:00,26.8,22.6,29.98,NNE,28,2.0,2.0,84,0.00,,,0.00,0,Wunderground v.1.15,2013-02-07 02:06:00,
2013-02-06 20:16:00,26.8,22.6,29.97,NNE,28,2.0,2.0,84,0.00,,,0.00,0,Wunderground v.1.15,2013-02-07 02:16:00,
2013-02-06 20:26:00,26.8,22.9,29.97,NNE,32,1.0,2.0,85,0.00,,,0.00,0,Wunderground v.1.15,2013-02-07 02:26:00,
2013-02-06 20:36:00,26.8,22.9,29.97,ESE,115,1.0,1.0,85,0.00,,,0.00,0,Wunderground v.1.15,2013-02-07 02:36:00,
2013-02-06 20:41:00,26.8,23.2,29.97,ESE,115,3.0,3.0,86,0.00,,,0.00,0,Wunderground v.1.15,2013-02-07 02:41:00,
2013-02-06 20:51:00,26.8,23.2,29.98,ESE,115,2.0,2.0,86,0.00,,,0.00,0,Wunderground v.1.15,2013-02-07 02:51:00,
2013-02-06 20:56:00,26.8,23.2,29.97,ESE,115,3.0,3.0,86,0.00,,,0.00,0,Wunderground v.1.15,2013-02-07 02:56:00,
2013-02-06 21:06:00,26.8,23.2,29.96,ESE,108,2.0,4.0,86,0.00,,,0.00,0,Wunderground v.1.15,2013-02-07 03:06:00,
2013-02-06 21:16:00,26.9,23.3,29.97,East,94,2.0,4.0,86,0.00,,,0.00,0,Wunderground v.1.15,2013-02-07 03:16:00,
2013-02-06 21:26:00,27.1,23.7,29.97,ENE,76,2.0,4.0,87,0.00,,,0.00,0,Wunderground v.1.15,2013-02-07 03:26:00,
2013-02-06 21:36:00,27.2,23.6,29.97,ENE,77,0.0,3.0,86,0.00,,,0.00,0,Wunderground v.1.15,2013-02-07 03:36:00,
2013-02-06 21:41:00,27.3,23.7,29.97,ENE,77,1.0,1.0,86,0.00,,,0.00,0,Wunderground v.1.15,2013-02-07 03:41:00,
2013-02-06 21:51:00,27.3,23.9,29.98,ENE,77,3.0,3.0,87,0.00,,,0.00,0,Wunderground v.1.15,2013-02-07 03:51:00,
2013-02-06 22:01:00,27.3,23.7,29.98,ENE,76,0.0,0.0,86,0.00,,,0.00,0,Wunderground v.1.15,2013-02-07 04:01:00,
2013-02-06 22:06:00,27.2,23.6,29.99,East,82,3.0,3.0,86,0.00,,,0.00,0,Wunderground v.1.15,2013-02-07 04:06:00,
2013-02-06 22:16:00,27.2,23.6,29.98,East,82,0.0,0.0,86,0.00,,,0.00,0,Wunderground v.1.15,2013-02-07 04:16:00,
2013-02-06 22:26:00,27.2,23.6,29.97,East,82,2.0,3.0,86,0.00,,,0.00,0,Wunderground v.1.15,2013-02-07 04:26:00,
2013-02-06 22:31:00,27.2,23.6,29.97,East,82,0.0,0.0,86,0.00,,,0.00,0,Wunderground v.1.15,2013-02-07 04:31:00,
2013-02-06 22:41:00,27.1,23.5,29.97,East,85,3.0,3.0,86,0.00,,,0.00,0,Wunderground v.1.15,2013-02-07 04:41:00,
2013-02-06 22:46:00,27.1,23.7,29.97,East,89,3.0,3.0,87,0.00,,,0.00,0,Wunderground v.1.15,2013-02-07 04:46:00,
2013-02-06 22:56:00,27.1,23.7,29.97,East,89,3.0,3.0,87,0.00,,,0.00,0,Wunderground v.1.15,2013-02-07 04:56:00,
2013-02-06 23:01:00,27.1,23.7,29.97,East,89,4.0,4.0,87,0.00,,,0.00,0,Wunderground v.1.15,2013-02-07 05:01:00,
2013-02-06 23:06:00,27.2,23.8,29.98,East,89,3.0,4.0,87,0.00,,,0.00,0,Wunderground v.1.15,2013-02-07 05:06:00,
2013-02-06 23:11:00,27.2,23.8,29.97,East,89,1.0,1.0,87,0.00,,,0.00,0,Wunderground v.1.15,2013-02-07 05:11:00,
2013-02-06 23:21:00,27.3,23.9,29.97,East,89,4.0,4.0,87,0.00,,,0.00,0,Wunderground v.1.15,2013-02-07 05:21:00,
2013-02-06 23:31:00,27.3,23.9,29.97,East,101,1.0,1.0,87,0.00,,,0.00,0,Wunderground v.1.15,2013-02-07 05:31:00,
2013-02-06 23:41:00,27.3,23.9,29.97,East,101,4.0,4.0,87,0.00,,,0.00,0,Wunderground v.1.15,2013-02-07 05:41:00,
2013-02-06 23:51:00,27.4,24.3,29.97,East,101,2.0,2.0,88,0.00,,,0.00,0,Wunderground v.1.15,2013-02-07 05:51:00,